createdAt,value
2023-05-15T00:02:15.414Z,82.30
2023-05-15T00:04:42.562Z,82.01
2023-05-15T00:07:09.498Z,82.33
2023-05-15T00:09:37.775Z,82.83
2023-05-15T00:12:05.295Z,82.73
2023-05-15T00:14:33.355Z,83.02
2023-05-15T00:17:00.357Z,82.52
2023-05-15T00:19:27.232Z,82.28
2023-05-15T00:21:54.198Z,82.28
2023-05-15T00:24:22.003Z,82.46
2023-05-15T00:26:50.404Z,82.51
2023-05-15T00:29:17.371Z,81.55
2023-05-15T00:31:45.216Z,81.73
2023-05-15T00:34:12.129Z,81.35
2023-05-15T00:36:39.045Z,81.85
2023-05-15T00:39:06.013Z,81.65
2023-05-15T00:41:33.783Z,82.09
2023-05-15T00:44:02.527Z,82.70
2023-05-15T00:46:31.626Z,82.18
2023-05-15T00:48:58.798Z,82.86
2023-05-15T00:51:26.417Z,83.31
2023-05-15T00:53:54.935Z,83.38
2023-05-15T00:56:21.747Z,82.79
2023-05-15T00:58:49.237Z,83.11
2023-05-15T01:01:17.953Z,83.78
2023-05-15T01:03:45.096Z,83.29
2023-05-15T01:06:12.316Z,83.83
2023-05-15T01:08:46.390Z,83.44
2023-05-15T01:11:14.627Z,82.77
2023-05-15T01:13:41.661Z,83.00
2023-05-15T01:16:09.095Z,83.58
2023-05-15T01:18:37.868Z,82.84
2023-05-15T01:21:44.695Z,83.10
2023-05-15T01:24:24.573Z,83.21
2023-05-15T01:27:07.127Z,83.07
2023-05-15T01:29:37.997Z,82.64
2023-05-15T01:32:09.841Z,83.13
2023-05-15T01:34:46.094Z,83.31
2023-05-15T01:37:14.679Z,83.51
2023-05-15T01:39:42.833Z,83.35
2023-05-15T01:42:13.790Z,82.98
2023-05-15T01:44:45.961Z,82.14
2023-05-15T01:47:14.475Z,81.78
2023-05-15T01:49:41.291Z,81.93
2023-05-15T01:52:13.639Z,82.98
2023-05-15T01:54:42.581Z,83.05
2023-05-15T01:57:11.748Z,82.69
2023-05-15T01:59:39.350Z,82.44
2023-05-15T02:02:06.457Z,82.13
2023-05-15T02:04:33.795Z,82.42
2023-05-15T02:07:01.881Z,82.51
2023-05-15T02:09:29.065Z,83.11
2023-05-15T02:11:57.210Z,82.99
2023-05-15T02:14:26.653Z,82.57
2023-05-15T02:16:53.630Z,82.85
2023-05-15T02:19:20.646Z,82.85
2023-05-15T02:21:47.627Z,82.61
2023-05-15T02:24:14.527Z,82.45
2023-05-15T02:26:48.025Z,82.57
2023-05-15T02:29:22.826Z,83.16
2023-05-15T02:32:00.538Z,83.93
2023-05-15T02:34:33.324Z,83.12
2023-05-15T02:37:01.300Z,83.29
2023-05-15T02:39:29.408Z,83.89
2023-05-15T02:41:57.223Z,84.57
2023-05-15T02:44:25.107Z,84.20
2023-05-15T02:46:53.766Z,84.05
2023-05-15T02:49:21.396Z,84.00
2023-05-15T02:51:48.493Z,84.24
2023-05-15T02:54:15.399Z,83.29
2023-05-15T02:56:42.349Z,84.15
2023-05-15T02:59:09.319Z,84.08
2023-05-15T03:01:36.347Z,84.29
2023-05-15T03:04:05.021Z,84.42
2023-05-15T03:06:32.081Z,84.31
2023-05-15T03:08:59.132Z,84.04
2023-05-15T03:11:26.022Z,83.80
2023-05-15T03:13:52.938Z,84.01
2023-05-15T03:16:19.993Z,83.65
2023-05-15T03:18:46.949Z,83.82
2023-05-15T03:21:15.300Z,84.13
2023-05-15T03:23:42.219Z,84.17
2023-05-15T03:26:09.083Z,84.06
2023-05-15T03:28:36.032Z,84.39
2023-05-15T03:31:04.921Z,84.26
2023-05-15T03:33:32.434Z,84.37
2023-05-15T03:35:59.445Z,84.13
2023-05-15T03:38:27.720Z,84.15
2023-05-15T03:40:54.648Z,84.78
2023-05-15T03:43:21.664Z,85.09
2023-05-15T03:46:08.091Z,85.43
2023-05-15T03:48:35.004Z,85.20
2023-05-15T03:51:06.133Z,85.08
2023-05-15T03:53:34.467Z,84.84
2023-05-15T03:56:01.364Z,84.68
2023-05-15T03:58:28.283Z,84.25
2023-05-15T04:00:55.159Z,85.31
2023-05-15T04:03:22.197Z,85.24
2023-05-15T04:05:50.246Z,85.42
2023-05-15T04:08:17.207Z,84.92
2023-05-15T04:10:45.754Z,85.48
2023-05-15T04:13:12.704Z,84.87
2023-05-15T04:15:40.554Z,84.87
2023-05-15T04:18:07.501Z,84.69
2023-05-15T04:20:34.516Z,85.08
2023-05-15T04:23:04.285Z,84.61
2023-05-15T04:25:31.557Z,85.18
2023-05-15T04:27:59.878Z,85.05
2023-05-15T04:30:26.860Z,84.26
2023-05-15T04:32:54.044Z,83.64
2023-05-15T04:35:21.080Z,84.08
2023-05-15T04:37:48.059Z,83.76
2023-05-15T04:40:16.560Z,83.21
2023-05-15T04:42:43.793Z,84.42
2023-05-15T04:45:12.177Z,84.83
2023-05-15T04:47:39.112Z,84.61
2023-05-15T04:50:06.912Z,84.34
2023-05-15T04:52:33.932Z,84.69
2023-05-15T04:55:00.870Z,84.81
2023-05-15T04:57:27.982Z,84.32
2023-05-15T04:59:54.921Z,83.40
2023-05-15T05:02:23.755Z,84.08
2023-05-15T05:04:50.897Z,83.96
2023-05-15T05:07:17.790Z,83.50
2023-05-15T05:09:45.006Z,83.86
2023-05-15T05:12:11.980Z,83.83
2023-05-15T05:14:40.762Z,84.19
2023-05-15T05:17:07.884Z,83.86
2023-05-15T05:19:36.184Z,83.33
2023-05-15T05:22:05.431Z,84.02
2023-05-15T05:24:32.808Z,83.41
2023-05-15T05:27:00.372Z,83.58
2023-05-15T05:29:27.439Z,84.01
2023-05-15T05:31:54.613Z,83.74
2023-05-15T05:34:22.047Z,84.22
2023-05-15T05:36:50.569Z,83.27
2023-05-15T05:39:17.383Z,82.83
2023-05-15T05:41:44.662Z,82.47
2023-05-15T05:44:11.732Z,82.57
2023-05-15T05:46:38.700Z,82.56
2023-05-15T05:49:05.885Z,82.10
2023-05-15T05:51:32.778Z,82.42
2023-05-15T05:54:01.066Z,82.19
2023-05-15T05:56:27.952Z,82.46
2023-05-15T05:58:56.491Z,81.25
2023-05-15T06:01:23.451Z,81.75
2023-05-15T06:03:50.495Z,81.50
2023-05-15T06:06:17.524Z,81.57
2023-05-15T06:08:44.458Z,81.51
2023-05-15T06:11:12.978Z,82.17
2023-05-15T06:13:40.612Z,81.69
2023-05-15T06:16:07.667Z,80.86
2023-05-15T06:18:34.587Z,80.95
2023-05-15T06:21:01.616Z,80.56
2023-05-15T06:23:28.555Z,79.17
2023-05-15T06:25:55.503Z,79.67
2023-05-15T06:28:23.757Z,79.84
2023-05-15T06:30:50.477Z,79.09
2023-05-15T06:33:17.504Z,78.26
2023-05-15T06:35:44.692Z,78.64
2023-05-15T06:38:11.657Z,79.26
2023-05-15T06:40:38.555Z,79.33
2023-05-15T06:43:05.569Z,77.99
2023-05-15T06:45:33.866Z,78.41
2023-05-15T06:48:01.907Z,77.29
2023-05-15T06:50:28.970Z,76.11
2023-05-15T06:52:55.868Z,76.75
2023-05-15T06:55:23.584Z,76.41
2023-05-15T06:57:50.658Z,77.42
2023-05-15T07:00:18.207Z,77.30
2023-05-15T07:02:46.529Z,75.97
2023-05-15T07:05:14.150Z,75.84
2023-05-15T07:07:41.568Z,75.77
2023-05-15T07:10:09.493Z,76.10
2023-05-15T07:12:36.519Z,75.75
2023-05-15T07:15:03.746Z,75.46
2023-05-15T07:17:31.778Z,75.63
2023-05-15T07:20:00.188Z,75.42
2023-05-15T07:22:26.951Z,75.01
2023-05-15T07:24:53.786Z,76.50
2023-05-15T07:27:20.639Z,75.84
2023-05-15T07:29:47.570Z,74.96
2023-05-15T07:32:14.476Z,75.69
2023-05-15T07:34:42.748Z,75.10
2023-05-15T07:37:10.910Z,74.60
2023-05-15T07:39:38.021Z,74.39
2023-05-15T07:42:05.272Z,74.07
2023-05-15T07:44:32.212Z,74.34
2023-05-15T07:46:59.369Z,74.88
2023-05-15T07:49:26.279Z,74.24
2023-05-15T07:51:53.237Z,74.53
2023-05-15T07:54:21.828Z,74.37
2023-05-15T07:56:49.000Z,74.39
2023-05-15T07:59:16.153Z,73.65
2023-05-15T08:01:43.213Z,73.99
2023-05-15T08:04:10.145Z,74.66
2023-05-15T08:06:38.360Z,74.20
2023-05-15T08:09:05.454Z,74.69
2023-05-15T08:11:33.796Z,74.28
2023-05-15T08:14:00.779Z,72.34
2023-05-15T08:16:27.889Z,71.97
2023-05-15T08:18:58.757Z,73.29
2023-05-15T08:21:25.782Z,74.53
2023-05-15T08:23:53.848Z,74.93
2023-05-15T08:26:21.194Z,73.34
2023-05-15T08:28:49.441Z,74.48
2023-05-15T08:31:16.297Z,74.46
2023-05-15T08:33:43.285Z,74.44
2023-05-15T08:36:10.465Z,73.54
2023-05-15T08:38:37.309Z,73.59
2023-05-15T08:41:07.805Z,73.29
2023-05-15T08:43:36.956Z,72.30
2023-05-15T08:46:05.496Z,73.52
2023-05-15T08:48:37.272Z,72.32
2023-05-15T08:51:04.825Z,72.83
2023-05-15T08:53:32.124Z,71.86
2023-05-15T08:55:59.044Z,71.82
2023-05-15T08:58:28.476Z,72.12
2023-05-15T09:00:56.028Z,71.94
2023-05-15T09:03:28.146Z,72.07
2023-05-15T09:05:55.275Z,72.53
2023-05-15T09:08:23.037Z,73.67
2023-05-15T09:10:50.313Z,72.52
2023-05-15T09:13:17.591Z,72.22
2023-05-15T09:15:45.835Z,73.37
2023-05-15T09:18:12.554Z,73.48
2023-05-15T09:20:40.923Z,73.53
2023-05-15T09:23:23.227Z,73.29
2023-05-15T09:25:53.665Z,73.22
2023-05-15T09:28:28.335Z,72.26
2023-05-15T09:31:00.574Z,72.84
2023-05-15T09:33:28.951Z,73.04
2023-05-15T09:35:57.356Z,73.29
2023-05-15T09:38:24.372Z,73.52
2023-05-15T09:40:51.988Z,71.92
2023-05-15T09:43:18.896Z,71.34
2023-05-15T09:45:48.527Z,69.59
2023-05-15T09:48:15.793Z,68.95
2023-05-15T09:50:43.000Z,68.99
2023-05-15T09:53:14.018Z,69.56
2023-05-15T09:55:42.220Z,69.27
2023-05-15T09:58:11.254Z,69.71
2023-05-15T10:00:48.249Z,70.08
2023-05-15T10:03:18.015Z,70.39
2023-05-15T10:05:45.159Z,68.36
2023-05-15T10:08:15.066Z,69.86
2023-05-15T10:10:42.588Z,69.40
2023-05-15T10:13:10.039Z,68.80
2023-05-15T10:15:37.532Z,69.20
2023-05-15T10:18:05.056Z,68.14
2023-05-15T10:20:35.675Z,69.37
2023-05-15T10:23:05.004Z,68.97
2023-05-15T10:25:39.945Z,69.34
2023-05-15T10:28:09.316Z,69.15
2023-05-15T10:30:36.824Z,68.92
2023-05-15T10:33:05.092Z,67.84
2023-05-15T10:35:32.117Z,68.11
2023-05-15T10:37:59.431Z,67.55
2023-05-15T10:40:27.392Z,68.03
2023-05-15T10:42:58.126Z,68.32
2023-05-15T10:45:25.496Z,67.96
2023-05-15T10:47:53.038Z,67.42
2023-05-15T10:50:20.197Z,68.71
2023-05-15T10:52:51.261Z,68.40
2023-05-15T10:55:18.857Z,68.88
2023-05-15T10:57:46.988Z,67.96
2023-05-15T11:00:41.876Z,68.21
2023-05-15T11:03:08.966Z,65.75
2023-05-15T11:06:09.882Z,68.13
2023-05-15T11:08:37.472Z,67.50
2023-05-15T11:11:04.376Z,68.81
2023-05-15T11:14:04.473Z,67.89
2023-05-15T11:17:04.320Z,69.25
2023-05-15T11:19:36.447Z,69.02
2023-05-15T11:22:15.812Z,66.98
2023-05-15T11:24:51.190Z,67.40
2023-05-15T11:27:20.552Z,65.24
2023-05-15T11:30:08.132Z,64.72
2023-05-15T11:32:50.796Z,64.81
2023-05-15T11:35:23.731Z,64.67
2023-05-15T11:37:52.106Z,65.49
2023-05-15T11:40:21.432Z,64.33
2023-05-15T11:43:05.344Z,65.58
2023-05-15T11:45:34.174Z,65.77
2023-05-15T11:48:03.902Z,65.43
2023-05-15T11:50:32.917Z,66.43
2023-05-15T11:53:04.118Z,64.14
2023-05-15T11:55:32.257Z,63.92
2023-05-15T11:57:59.585Z,63.71
2023-05-15T12:00:26.731Z,63.17
2023-05-15T12:02:53.986Z,63.12
2023-05-15T12:05:22.736Z,62.57
2023-05-15T12:07:50.336Z,60.97
2023-05-15T12:10:17.588Z,61.82
2023-05-15T12:12:48.586Z,61.35
2023-05-15T12:15:17.038Z,61.24
2023-05-15T12:17:45.305Z,61.42
2023-05-15T12:20:15.719Z,61.65
2023-05-15T12:22:44.101Z,62.31
2023-05-15T12:25:11.829Z,61.70
2023-05-15T12:27:39.693Z,61.77
2023-05-15T12:30:07.859Z,61.62
2023-05-15T12:32:36.377Z,61.08
2023-05-15T12:35:05.016Z,61.37
2023-05-15T12:37:33.665Z,60.17
2023-05-15T12:40:07.411Z,60.00
2023-05-15T12:42:39.075Z,59.96
2023-05-15T12:45:12.806Z,57.70
2023-05-15T12:47:39.804Z,57.00
2023-05-15T12:50:13.201Z,55.39
2023-05-15T12:52:40.699Z,57.11
2023-05-15T12:55:09.554Z,55.27
2023-05-15T12:57:36.543Z,54.42
2023-05-15T13:00:05.256Z,55.04
2023-05-15T13:02:32.330Z,54.78
2023-05-15T13:05:02.076Z,53.63
2023-05-15T13:07:29.825Z,53.47
2023-05-15T13:10:05.075Z,52.27
2023-05-15T13:12:37.502Z,50.22
2023-05-15T13:15:05.669Z,49.43
2023-05-15T13:17:33.410Z,49.93
2023-05-15T13:20:00.575Z,48.68
2023-05-15T13:22:28.103Z,49.09
2023-05-15T13:24:57.072Z,47.60
2023-05-15T13:27:24.023Z,47.19
2023-05-15T13:29:52.332Z,46.73
2023-05-15T13:32:19.205Z,45.57
2023-05-15T13:34:46.204Z,45.48
2023-05-15T13:37:13.161Z,45.14
2023-05-15T13:39:40.059Z,44.01
2023-05-15T13:42:06.990Z,45.51
2023-05-15T13:44:35.922Z,45.37
2023-05-15T13:47:04.641Z,45.03
2023-05-15T13:49:32.008Z,45.72
2023-05-15T13:51:59.311Z,44.39
2023-05-15T13:54:26.261Z,44.01
2023-05-15T13:56:53.408Z,44.33
2023-05-15T13:59:20.347Z,43.46
2023-05-15T14:01:47.575Z,43.45
2023-05-15T14:04:15.904Z,44.12
2023-05-15T14:06:42.864Z,42.92
2023-05-15T14:09:09.868Z,43.01
2023-05-15T14:11:36.741Z,43.37
2023-05-15T14:14:04.010Z,43.64
2023-05-15T14:16:30.879Z,44.16
2023-05-15T14:18:58.343Z,44.21
2023-05-15T14:21:26.639Z,43.87
2023-05-15T14:23:53.510Z,42.66
2023-05-15T14:26:20.444Z,43.39
2023-05-15T14:28:47.410Z,43.04
2023-05-15T14:31:14.388Z,42.87
2023-05-15T14:33:41.430Z,42.30
2023-05-15T14:36:08.587Z,42.38
2023-05-15T14:38:37.708Z,43.02
2023-05-15T14:41:04.950Z,43.85
2023-05-15T14:43:31.948Z,44.07
2023-05-15T14:45:58.957Z,43.29
2023-05-15T14:48:25.892Z,43.94
2023-05-15T14:50:52.844Z,44.88
2023-05-15T14:53:19.904Z,43.19
2023-05-15T14:55:48.161Z,42.94
2023-05-15T14:58:15.209Z,43.32
2023-05-15T15:00:42.110Z,43.01
2023-05-15T15:03:10.726Z,44.15
2023-05-15T15:05:37.703Z,43.36
2023-05-15T15:08:06.189Z,42.27
2023-05-15T15:10:34.403Z,42.27
2023-05-15T15:13:03.129Z,43.26
2023-05-15T15:15:30.690Z,43.07
2023-05-15T15:17:58.121Z,42.71
2023-05-15T15:20:26.578Z,43.27
2023-05-15T15:22:54.021Z,43.40
2023-05-15T15:25:21.306Z,43.06
2023-05-15T15:27:49.088Z,43.20
2023-05-15T15:30:17.145Z,43.30
2023-05-15T15:32:45.136Z,42.73
2023-05-15T15:35:12.714Z,42.80
2023-05-15T15:37:39.723Z,42.34
2023-05-15T15:40:08.182Z,42.39
2023-05-15T15:42:35.396Z,42.06
2023-05-15T15:45:02.447Z,42.49
2023-05-15T15:47:32.152Z,42.22
2023-05-15T15:49:59.308Z,42.25
2023-05-15T15:52:26.713Z,42.70
2023-05-15T15:54:53.803Z,43.45
2023-05-15T15:57:21.626Z,43.70
2023-05-15T15:59:49.317Z,43.97
2023-05-15T16:02:16.834Z,44.73
2023-05-15T16:04:45.131Z,44.83
2023-05-15T16:07:12.077Z,45.08
2023-05-15T16:09:39.077Z,45.64
2023-05-15T16:12:06.293Z,46.24
2023-05-15T16:14:33.215Z,47.27
2023-05-15T16:17:02.700Z,47.36
2023-05-15T16:19:30.386Z,48.28
2023-05-15T16:21:58.796Z,47.73
2023-05-15T16:24:26.426Z,47.66
2023-05-15T16:26:53.368Z,48.09
2023-05-15T16:29:20.688Z,48.38
2023-05-15T16:31:47.570Z,48.63
2023-05-15T16:34:14.843Z,49.29
2023-05-15T16:36:42.204Z,50.27
2023-05-15T16:39:10.442Z,50.62
2023-05-15T16:41:37.375Z,51.46
2023-05-15T16:44:06.225Z,52.30
2023-05-15T16:46:33.340Z,53.11
2023-05-15T16:49:00.350Z,54.02
2023-05-15T16:51:27.260Z,54.83
2023-05-15T16:53:56.254Z,56.00
2023-05-15T16:56:24.496Z,56.75
2023-05-15T16:58:53.093Z,57.83
2023-05-15T17:01:20.150Z,58.71
2023-05-15T17:03:47.249Z,59.14
2023-05-15T17:06:14.237Z,60.12
2023-05-15T17:08:43.518Z,60.61
2023-05-15T17:11:10.631Z,61.53
2023-05-15T17:13:38.951Z,62.66
2023-05-15T17:16:06.650Z,62.99
2023-05-15T17:18:33.727Z,63.71
2023-05-15T17:21:00.751Z,64.22
2023-05-15T17:23:27.630Z,64.44
2023-05-15T17:25:54.709Z,65.74
2023-05-15T17:28:21.617Z,66.03
2023-05-15T17:30:49.884Z,66.32
2023-05-15T17:33:16.990Z,66.59
2023-05-15T17:35:43.920Z,66.82
2023-05-15T17:38:10.838Z,67.03
2023-05-15T17:40:37.850Z,67.50
2023-05-15T17:43:04.763Z,67.91
2023-05-15T17:45:31.743Z,67.59
2023-05-15T17:48:03.711Z,67.53
2023-05-15T17:50:30.950Z,67.95
2023-05-15T17:52:57.835Z,68.01
2023-05-15T17:55:25.008Z,67.84
2023-05-15T17:57:52.290Z,68.02
2023-05-15T18:00:19.666Z,68.66
2023-05-15T18:02:46.683Z,68.68
2023-05-15T18:05:15.137Z,69.92
2023-05-15T18:07:42.444Z,69.59
2023-05-15T18:10:10.153Z,69.74
2023-05-15T18:12:37.054Z,69.63
2023-05-15T18:15:04.645Z,69.57
2023-05-15T18:17:31.597Z,69.62
2023-05-15T18:19:58.960Z,69.85
2023-05-15T18:22:27.292Z,70.44
2023-05-15T18:24:54.295Z,70.34
2023-05-15T18:27:21.270Z,70.56
2023-05-15T18:29:48.227Z,70.86
2023-05-15T18:32:15.387Z,71.18
2023-05-15T18:34:42.225Z,71.43
2023-05-15T18:37:09.080Z,71.33
2023-05-15T18:39:38.968Z,71.67
2023-05-15T18:42:06.844Z,72.29
2023-05-15T18:44:34.920Z,72.48
2023-05-15T18:47:02.262Z,72.65
2023-05-15T18:49:29.694Z,72.85
2023-05-15T18:51:57.970Z,72.84
2023-05-15T18:54:24.902Z,72.76
2023-05-15T18:56:53.226Z,73.45
2023-05-15T18:59:20.066Z,73.46
2023-05-15T19:01:48.833Z,73.53
2023-05-15T19:04:15.867Z,73.66
2023-05-15T19:06:43.712Z,74.21
2023-05-15T19:09:10.836Z,73.74
2023-05-15T19:11:37.703Z,74.22
2023-05-15T19:14:06.068Z,74.02
2023-05-15T19:16:33.123Z,74.22
2023-05-15T19:19:00.255Z,73.95
2023-05-15T19:21:27.296Z,73.96
2023-05-15T19:23:54.392Z,74.04
2023-05-15T19:26:21.811Z,73.95
2023-05-15T19:28:48.778Z,73.72
2023-05-15T19:31:30.251Z,73.07
2023-05-15T19:33:58.693Z,73.42
2023-05-15T19:36:25.980Z,73.72
2023-05-15T19:38:53.084Z,73.39
2023-05-15T19:41:19.942Z,73.36
2023-05-15T19:43:47.150Z,73.42
2023-05-15T19:46:14.116Z,73.04
2023-05-15T19:48:42.640Z,73.09
2023-05-15T19:51:09.756Z,73.83
2023-05-15T19:53:36.743Z,73.90
2023-05-15T19:56:03.898Z,74.01
2023-05-15T19:58:31.224Z,74.06
2023-05-15T20:00:58.294Z,73.93
2023-05-15T20:03:32.497Z,73.67
2023-05-15T20:06:01.691Z,73.91
2023-05-15T20:08:28.935Z,73.91
2023-05-15T20:10:56.250Z,73.91
2023-05-15T20:13:24.015Z,76.62
2023-05-15T20:15:54.847Z,76.24
2023-05-15T20:18:21.968Z,72.71
2023-05-15T20:20:48.900Z,72.93
2023-05-15T20:23:17.242Z,73.80
2023-05-15T20:25:44.205Z,73.79
2023-05-15T20:28:11.318Z,74.17
2023-05-15T20:30:38.281Z,74.67
2023-05-15T20:33:05.404Z,75.11
2023-05-15T20:35:32.383Z,74.80
2023-05-15T20:37:59.285Z,75.02
2023-05-15T20:40:28.171Z,75.16
2023-05-15T20:42:56.918Z,75.46
2023-05-15T20:45:24.457Z,75.95
2023-05-15T20:47:51.429Z,75.72
2023-05-15T20:50:18.612Z,75.79
2023-05-15T20:52:46.153Z,75.94
2023-05-15T20:55:17.211Z,76.47
2023-05-15T20:57:46.716Z,76.77
2023-05-15T21:00:15.703Z,76.83
2023-05-15T21:02:43.119Z,76.86
2023-05-15T21:05:10.582Z,76.90
2023-05-15T21:07:37.485Z,77.38
2023-05-15T21:10:05.038Z,77.17
2023-05-15T21:12:34.533Z,77.17
2023-05-15T21:15:04.338Z,76.92
2023-05-15T21:17:31.494Z,77.17
2023-05-15T21:19:58.584Z,77.12
2023-05-15T21:22:25.818Z,76.79
2023-05-15T21:24:52.719Z,76.80
2023-05-15T21:27:19.745Z,76.41
2023-05-15T21:29:46.734Z,76.91
2023-05-15T21:32:15.215Z,76.58
2023-05-15T21:34:42.175Z,76.31
2023-05-15T21:37:09.096Z,75.80
2023-05-15T21:39:36.022Z,75.43
2023-05-15T21:42:02.982Z,75.15
2023-05-15T21:44:29.841Z,74.96
2023-05-15T21:46:57.082Z,74.59
2023-05-15T21:49:25.544Z,74.37
2023-05-15T21:51:52.546Z,74.19
2023-05-15T21:54:19.526Z,73.82
2023-05-15T21:56:46.439Z,73.66
2023-05-15T21:59:14.546Z,74.06
2023-05-15T22:01:41.634Z,73.81
2023-05-15T22:04:09.022Z,73.90
2023-05-15T22:06:37.456Z,73.46
2023-05-15T22:09:04.293Z,73.40
2023-05-15T22:11:31.210Z,73.73
2023-05-15T22:13:58.169Z,73.44
2023-05-15T22:16:25.457Z,73.31
2023-05-15T22:18:54.062Z,73.74
2023-05-15T22:21:21.042Z,74.70
2023-05-15T22:23:49.365Z,75.26
2023-05-15T22:26:16.054Z,75.74
2023-05-15T22:28:42.976Z,76.04
2023-05-15T22:31:09.939Z,76.14
2023-05-15T22:33:36.858Z,76.29
2023-05-15T22:36:04.273Z,76.09
2023-05-15T22:38:31.491Z,76.22
2023-05-15T22:40:59.848Z,76.07
2023-05-15T22:43:26.591Z,75.84
2023-05-15T22:45:53.672Z,76.29
2023-05-15T22:48:21.053Z,76.40
2023-05-15T22:50:48.655Z,76.34
2023-05-15T22:53:15.767Z,76.23
2023-05-15T22:55:42.798Z,76.46
2023-05-15T22:58:11.131Z,76.59
2023-05-15T23:00:38.033Z,76.40
2023-05-15T23:03:05.150Z,76.57
2023-05-15T23:05:32.059Z,76.65
2023-05-15T23:07:58.952Z,77.00
2023-05-15T23:10:26.235Z,77.28
2023-05-15T23:12:53.883Z,77.18
2023-05-15T23:15:22.188Z,77.52
2023-05-15T23:17:48.959Z,77.53
2023-05-15T23:20:16.035Z,78.50
2023-05-15T23:22:43.013Z,78.40
2023-05-15T23:25:10.260Z,78.74
2023-05-15T23:27:37.198Z,78.91
2023-05-15T23:30:05.056Z,79.05
2023-05-15T23:32:33.426Z,79.07
2023-05-15T23:35:00.377Z,79.25
2023-05-15T23:37:27.282Z,80.06
2023-05-15T23:39:57.155Z,80.25
2023-05-15T23:42:24.120Z,79.96
2023-05-15T23:44:51.232Z,80.35
2023-05-15T23:47:18.185Z,79.69
2023-05-15T23:49:46.539Z,79.89
2023-05-15T23:52:13.617Z,80.41
2023-05-15T23:54:40.576Z,79.84
2023-05-15T23:57:07.472Z,79.70
2023-05-15T23:59:34.425Z,79.63
